createdAt,value
2019-05-12T00:00:08.068Z,5.2949
2019-05-12T00:00:22.948Z,3.6649
2019-05-12T00:00:28.729Z,3.8217
2019-05-12T00:00:39.273Z,4.2422
2019-05-12T00:00:48.373Z,5.9946
2019-05-12T00:00:58.603Z,6.1215
2019-05-12T00:01:09.390Z,5.3006
2019-05-12T00:01:18.852Z,4.8930
2019-05-12T00:01:28.576Z,4.5877
2019-05-12T00:01:38.992Z,5.0724
2019-05-12T00:01:48.100Z,4.9593
2019-05-12T00:01:58.710Z,5.1057
2019-05-12T00:02:07.709Z,4.7750
2019-05-12T00:02:18.381Z,5.8508
2019-05-12T00:02:28.751Z,5.7279
2019-05-12T00:02:39.671Z,5.7768
2019-05-12T00:02:48.650Z,5.5920
2019-05-12T00:02:59.310Z,4.1334
2019-05-12T00:03:08.484Z,5.1062
2019-05-12T00:03:19.417Z,6.0437
2019-05-12T00:03:27.719Z,6.1224
2019-05-12T00:03:39.297Z,5.3612
2019-05-12T00:03:49.399Z,4.6621
2019-05-12T00:03:58.387Z,6.1515
2019-05-12T00:04:09.399Z,5.9519
2019-05-12T00:04:18.938Z,5.0837
2019-05-12T00:04:29.378Z,4.9014
2019-05-12T00:04:38.485Z,5.2949
2019-05-12T00:04:48.920Z,5.7067
2019-05-12T00:04:58.251Z,4.8984
2019-05-12T00:05:08.872Z,5.0597
2019-05-12T00:05:18.471Z,4.7950
2019-05-12T00:05:28.382Z,4.8352
2019-05-12T00:05:38.322Z,5.5203
2019-05-12T00:05:48.400Z,5.7376
2019-05-12T00:05:57.846Z,5.7481
2019-05-12T00:06:08.742Z,6.9327
2019-05-12T00:06:17.771Z,7.0104
2019-05-12T00:06:30.401Z,5.2301
2019-05-12T00:06:38.752Z,5.3115
2019-05-12T00:06:48.398Z,4.8246
2019-05-12T00:06:58.524Z,4.5268
2019-05-12T00:07:08.812Z,4.1293
2019-05-12T00:07:18.160Z,3.6615
2019-05-12T00:07:28.652Z,3.8637
2019-05-12T00:07:38.495Z,4.4518
2019-05-12T00:07:48.930Z,5.1165
2019-05-12T00:07:58.949Z,5.3683
2019-05-12T00:08:09.954Z,5.4545
2019-05-12T00:08:18.875Z,4.7392
2019-05-12T00:08:27.868Z,5.4286
2019-05-12T00:08:39.396Z,6.3792
2019-05-12T00:08:49.353Z,6.0029
2019-05-12T00:09:00.954Z,6.0326
2019-05-12T00:09:08.562Z,5.5805
2019-05-12T00:09:21.389Z,4.3425
2019-05-12T00:09:28.247Z,4.2216
2019-05-12T00:09:40.354Z,5.0594
2019-05-12T00:09:48.031Z,5.1654
2019-05-12T00:09:58.401Z,5.1752
2019-05-12T00:10:08.621Z,4.9012
2019-05-12T00:10:18.396Z,4.3460
2019-05-12T00:10:28.273Z,4.6300
2019-05-12T00:10:38.864Z,4.8906
2019-05-12T00:10:47.845Z,4.4625
2019-05-12T00:10:58.401Z,5.0001
2019-05-12T00:11:08.968Z,5.5818
2019-05-12T00:11:18.390Z,6.9798
2019-05-12T00:11:28.792Z,8.2357
2019-05-12T00:11:38.397Z,8.1552
2019-05-12T00:11:48.472Z,6.6857
2019-05-12T00:11:59.036Z,6.4404
2019-05-12T00:12:08.265Z,6.8146
2019-05-12T00:12:18.551Z,6.3824
2019-05-12T00:12:27.849Z,6.4071
2019-05-12T00:12:38.682Z,5.7501
2019-05-12T00:12:48.347Z,5.5603
2019-05-12T00:12:58.328Z,6.7359
2019-05-12T00:13:08.307Z,7.0522
2019-05-12T00:13:19.043Z,5.1072
2019-05-12T00:13:27.914Z,4.7819
2019-05-12T00:13:38.642Z,5.6035
2019-05-12T00:13:48.561Z,5.8226
2019-05-12T00:13:58.575Z,6.9298
2019-05-12T00:14:08.616Z,6.8639
2019-05-12T00:14:18.386Z,6.7199
2019-05-12T00:14:28.424Z,7.0042
2019-05-12T00:14:38.129Z,6.7131
2019-05-12T00:14:50.391Z,5.6354
2019-05-12T00:14:58.981Z,5.4158
2019-05-12T00:15:09.396Z,5.3529
2019-05-12T00:15:19.165Z,5.3106
2019-05-12T00:15:30.916Z,5.8842
2019-05-12T00:15:38.452Z,6.1497
2019-05-12T00:15:50.211Z,5.2997
2019-05-12T00:15:58.360Z,4.0149
2019-05-12T00:16:08.889Z,3.7924
2019-05-12T00:16:17.698Z,4.1406
2019-05-12T00:16:28.531Z,4.4604
2019-05-12T00:16:38.351Z,5.1562
2019-05-12T00:16:49.080Z,5.2694
2019-05-12T00:16:58.055Z,5.2050
2019-05-12T00:17:08.391Z,6.8962
2019-05-12T00:17:18.792Z,9.1281
2019-05-12T00:17:28.512Z,9.0553
2019-05-12T00:17:38.755Z,7.0523
2019-05-12T00:17:48.674Z,6.3140
2019-05-12T00:17:58.703Z,5.4524
2019-05-12T00:18:09.119Z,4.9906
2019-05-12T00:18:19.031Z,5.0656
2019-05-12T00:18:28.594Z,5.0095
2019-05-12T00:18:37.870Z,4.7518
2019-05-12T00:18:48.295Z,4.9302
2019-05-12T00:18:58.570Z,6.1782
2019-05-12T00:19:09.237Z,5.4506
2019-05-12T00:19:18.837Z,5.8034
2019-05-12T00:19:28.687Z,6.0116
2019-05-12T00:19:37.821Z,6.2215
2019-05-12T00:19:48.405Z,5.3911
2019-05-12T00:19:58.459Z,5.0074
2019-05-12T00:20:08.718Z,5.2580
2019-05-12T00:20:18.070Z,5.5719
2019-05-12T00:20:28.616Z,5.4932
2019-05-12T00:20:39.404Z,5.0458
2019-05-12T00:20:48.404Z,6.2358
2019-05-12T00:20:59.375Z,6.4378
2019-05-12T00:21:08.818Z,5.7446
2019-05-12T00:21:19.397Z,6.1848
2019-05-12T00:21:28.308Z,6.1162
2019-05-12T00:21:39.903Z,7.1702
2019-05-12T00:21:48.294Z,7.8153
2019-05-12T00:21:58.859Z,7.3714
2019-05-12T00:22:07.722Z,7.6616
2019-05-12T00:22:18.383Z,9.1649
2019-05-12T00:22:28.681Z,8.5094
2019-05-12T00:22:38.398Z,7.0295
2019-05-12T00:22:48.670Z,5.8493
2019-05-12T00:22:58.418Z,5.1464
2019-05-12T00:23:23.137Z,4.8051
2019-05-12T00:23:26.660Z,6.1599
2019-05-12T00:23:30.427Z,6.8356
2019-05-12T00:23:38.380Z,6.8624
2019-05-12T00:23:47.730Z,7.5373
2019-05-12T00:23:58.226Z,6.6292
2019-05-12T00:24:09.055Z,8.5198
2019-05-12T00:24:18.796Z,8.0987
2019-05-12T00:24:28.012Z,6.6192
2019-05-12T00:24:38.420Z,5.7584
2019-05-12T00:24:47.897Z,5.5509
2019-05-12T00:24:58.429Z,5.6512
2019-05-12T00:25:08.789Z,6.0167
2019-05-12T00:25:18.525Z,5.8959
2019-05-12T00:25:28.452Z,6.1273
2019-05-12T00:25:38.871Z,5.7017
2019-05-12T00:25:48.002Z,5.5244
2019-05-12T00:25:58.732Z,5.0036
2019-05-12T00:26:08.363Z,5.2404
2019-05-12T00:26:18.708Z,4.3852
2019-05-12T00:26:30.175Z,5.3114
2019-05-12T00:26:38.402Z,5.4239
2019-05-12T00:26:49.388Z,5.4552
2019-05-12T00:27:02.128Z,5.9372
2019-05-12T00:27:09.405Z,5.8016
2019-05-12T00:27:19.056Z,6.0337
2019-05-12T00:27:28.507Z,6.7280
2019-05-12T00:27:38.748Z,6.2719
2019-05-12T00:27:48.873Z,6.4928
2019-05-12T00:27:58.598Z,6.1456
2019-05-12T00:28:08.418Z,5.4083
2019-05-12T00:28:17.909Z,6.0649
2019-05-12T00:28:28.549Z,6.6742
2019-05-12T00:28:37.674Z,7.3578
2019-05-12T00:28:48.947Z,6.2747
2019-05-12T00:28:58.793Z,6.3963
2019-05-12T00:29:08.415Z,6.8328
2019-05-12T00:29:18.485Z,6.1183
2019-05-12T00:29:28.795Z,6.0352
2019-05-12T00:29:37.825Z,6.0897
2019-05-12T00:29:50.943Z,5.8390
2019-05-12T00:29:57.840Z,6.1340
2019-05-12T00:30:09.909Z,6.8717
2019-05-12T00:30:18.526Z,6.4485
2019-05-12T00:30:27.853Z,5.9796
2019-05-12T00:30:38.792Z,5.9926
2019-05-12T00:30:48.784Z,5.5549
2019-05-12T00:30:58.084Z,7.0986
2019-05-12T00:31:08.481Z,6.7232
2019-05-12T00:31:18.834Z,6.5688
2019-05-12T00:31:28.071Z,6.0873
2019-05-12T00:31:38.295Z,5.9718
2019-05-12T00:31:47.894Z,6.4291
2019-05-12T00:31:58.432Z,6.7502
2019-05-12T00:32:08.624Z,5.5557
2019-05-12T00:32:17.965Z,5.3962
2019-05-12T00:32:28.384Z,4.5763
2019-05-12T00:32:39.399Z,6.7515
2019-05-12T00:32:48.404Z,6.8848
2019-05-12T00:33:00.191Z,5.9857
2019-05-12T00:33:09.245Z,5.6618
2019-05-12T00:33:19.387Z,5.6332
2019-05-12T00:33:28.226Z,5.9849
2019-05-12T00:33:39.383Z,6.0208
2019-05-12T00:33:48.043Z,6.2753
2019-05-12T00:33:58.775Z,5.9509
2019-05-12T00:34:07.797Z,5.9529
2019-05-12T00:34:18.611Z,5.8275
2019-05-12T00:34:28.931Z,6.0986
2019-05-12T00:34:38.588Z,6.8618
2019-05-12T00:34:48.068Z,6.3414
2019-05-12T00:34:58.567Z,5.3207
2019-05-12T00:35:08.045Z,5.7365
2019-05-12T00:35:18.416Z,6.2814
2019-05-12T00:35:28.494Z,6.0306
2019-05-12T00:35:38.406Z,5.8778
2019-05-12T00:35:48.329Z,5.2000
2019-05-12T00:35:58.726Z,6.1124
2019-05-12T00:36:07.998Z,6.1296
2019-05-12T00:36:18.627Z,6.8825
2019-05-12T00:36:29.218Z,6.6516
2019-05-12T00:36:39.594Z,6.1703
2019-05-12T00:36:48.503Z,6.9761
2019-05-12T00:36:58.384Z,6.7559
2019-05-12T00:37:09.374Z,6.6487
2019-05-12T00:37:18.666Z,6.9270
2019-05-12T00:37:28.875Z,6.1608
2019-05-12T00:37:38.136Z,6.2711
2019-05-12T00:37:48.622Z,6.2593
2019-05-12T00:37:58.403Z,6.6302
2019-05-12T00:38:08.979Z,6.7654
2019-05-12T00:38:18.394Z,7.6012
2019-05-12T00:38:29.376Z,8.1310
2019-05-12T00:38:39.377Z,7.3234
2019-05-12T00:38:49.391Z,5.5583
2019-05-12T00:38:57.996Z,5.7286
2019-05-12T00:39:10.384Z,6.0152
2019-05-12T00:39:19.072Z,4.9770
2019-05-12T00:39:28.410Z,5.7888
2019-05-12T00:39:38.266Z,6.0620
2019-05-12T00:39:48.391Z,5.0254
2019-05-12T00:39:58.271Z,6.5514
2019-05-12T00:40:08.969Z,6.9386
2019-05-12T00:40:19.116Z,7.3553
2019-05-12T00:40:28.399Z,7.0483
2019-05-12T00:40:39.113Z,6.7299
2019-05-12T00:40:48.397Z,6.0278
2019-05-12T00:40:58.334Z,5.0518
2019-05-12T00:41:08.870Z,5.9567
2019-05-12T00:41:18.148Z,6.3008
2019-05-12T00:41:28.506Z,5.3469
2019-05-12T00:41:38.939Z,5.0302
2019-05-12T00:41:48.173Z,4.7401
2019-05-12T00:41:59.400Z,5.1380
2019-05-12T00:42:08.392Z,4.7641
2019-05-12T00:42:20.903Z,5.0896
2019-05-12T00:42:28.814Z,5.3259
2019-05-12T00:42:38.145Z,6.1345
2019-05-12T00:42:49.309Z,5.5928
2019-05-12T00:42:59.428Z,5.9376
2019-05-12T00:43:08.887Z,5.0026
2019-05-12T00:43:19.389Z,4.9151
2019-05-12T00:43:28.129Z,5.2619
2019-05-12T00:43:42.958Z,6.5241
2019-05-12T00:43:48.726Z,6.8716
2019-05-12T00:43:58.393Z,7.3499
2019-05-12T00:44:08.826Z,6.8445
2019-05-12T00:44:18.351Z,5.9681
2019-05-12T00:44:28.463Z,5.6009
2019-05-12T00:44:39.072Z,5.3141
2019-05-12T00:44:47.895Z,5.1547
2019-05-12T00:44:58.641Z,6.0158
2019-05-12T00:45:08.063Z,5.8432
2019-05-12T00:45:18.398Z,5.0899
2019-05-12T00:45:29.207Z,4.8578
2019-05-12T00:45:38.787Z,4.4694
2019-05-12T00:45:48.202Z,5.0911
2019-05-12T00:45:58.777Z,4.6871
2019-05-12T00:46:07.918Z,3.9980
2019-05-12T00:46:18.402Z,4.9237
2019-05-12T00:46:28.887Z,5.0170
2019-05-12T00:46:39.870Z,5.1978
2019-05-12T00:46:49.419Z,5.3145
2019-05-12T00:46:58.384Z,5.9146
2019-05-12T00:47:08.541Z,5.7148
2019-05-12T00:47:18.771Z,5.5243
2019-05-12T00:47:28.043Z,5.7786
2019-05-12T00:47:39.020Z,5.4978
2019-05-12T00:47:48.108Z,5.8422
2019-05-12T00:47:59.357Z,5.3113
2019-05-12T00:48:09.726Z,5.8504
2019-05-12T00:48:18.391Z,6.3133
2019-05-12T00:48:30.298Z,5.9591
2019-05-12T00:48:38.394Z,4.8149
2019-05-12T00:48:49.415Z,4.0111
2019-05-12T00:48:58.510Z,4.3388
2019-05-12T00:49:10.381Z,4.7245
2019-05-12T00:49:18.672Z,5.2651
2019-05-12T00:49:29.076Z,6.1457
2019-05-12T00:49:37.883Z,6.7395
2019-05-12T00:49:49.528Z,5.3133
2019-05-12T00:49:58.343Z,4.2764
2019-05-12T00:50:08.391Z,4.9741
2019-05-12T00:50:18.415Z,5.8134
2019-05-12T00:50:30.912Z,4.4305
2019-05-12T00:50:38.204Z,4.5614
2019-05-12T00:50:48.696Z,4.7914
2019-05-12T00:50:58.377Z,4.7467
2019-05-12T00:51:08.417Z,5.6966
2019-05-12T00:51:18.110Z,6.5188
2019-05-12T00:51:28.983Z,5.4361
2019-05-12T00:51:38.417Z,5.2665
2019-05-12T00:51:48.598Z,5.4380
2019-05-12T00:51:58.705Z,4.6885
2019-05-12T00:52:08.434Z,4.2566
2019-05-12T00:52:18.679Z,5.0929
2019-05-12T00:52:28.149Z,4.6310
2019-05-12T00:52:38.745Z,4.7897
2019-05-12T00:52:49.640Z,4.6932
2019-05-12T00:52:58.018Z,5.2509
2019-05-12T00:53:09.674Z,4.6858
2019-05-12T00:53:20.347Z,5.1722
2019-05-12T00:53:37.115Z,6.2046
2019-05-12T00:53:43.232Z,7.5528
2019-05-12T00:53:47.945Z,7.3555
2019-05-12T00:54:00.354Z,7.1074
2019-05-12T00:54:09.913Z,6.3830
2019-05-12T00:54:18.400Z,5.4528
2019-05-12T00:54:28.448Z,5.6720
2019-05-12T00:54:38.399Z,5.1467
2019-05-12T00:54:48.319Z,5.3926
2019-05-12T00:54:58.696Z,5.4616
2019-05-12T00:55:08.106Z,5.0212
2019-05-12T00:55:18.527Z,5.5944
2019-05-12T00:55:28.999Z,5.5092
2019-05-12T00:55:38.589Z,4.6267
2019-05-12T00:55:47.726Z,4.2974
2019-05-12T00:55:58.389Z,4.0803
2019-05-12T00:56:09.402Z,4.7869
2019-05-12T00:56:18.379Z,5.1478
2019-05-12T00:56:28.384Z,5.8138
2019-05-12T00:56:39.143Z,5.4699
2019-05-12T00:56:48.180Z,4.6117
2019-05-12T00:56:58.555Z,4.0997
2019-05-12T00:57:07.835Z,4.0005
2019-05-12T00:57:18.383Z,4.8166
2019-05-12T00:57:28.662Z,4.8369
2019-05-12T00:57:38.239Z,4.7574
2019-05-12T00:57:50.939Z,4.5554
2019-05-12T00:57:58.349Z,4.8573
2019-05-12T00:58:08.335Z,4.9925
2019-05-12T00:58:19.816Z,5.0472
2019-05-12T00:58:28.270Z,6.6900
2019-05-12T00:58:38.409Z,7.2579
2019-05-12T00:58:48.750Z,6.2633
2019-05-12T00:58:58.386Z,4.7174
2019-05-12T00:59:10.446Z,3.2679
2019-05-12T00:59:19.083Z,3.3969
2019-05-12T00:59:30.313Z,4.1984
2019-05-12T00:59:38.259Z,5.1745
2019-05-12T00:59:49.387Z,5.7770
2019-05-12T00:59:58.219Z,6.0785
2019-05-12T01:00:09.371Z,4.4979
2019-05-12T01:00:17.843Z,4.8106
2019-05-12T01:00:29.661Z,3.6712
2019-05-12T01:00:40.572Z,3.3575
2019-05-12T01:00:48.414Z,3.4375
2019-05-12T01:00:59.624Z,4.2427
2019-05-12T01:01:08.403Z,4.9828
2019-05-12T01:01:18.376Z,4.7974
2019-05-12T01:01:28.720Z,4.8437
2019-05-12T01:01:38.102Z,5.0813
2019-05-12T01:01:48.409Z,5.1171
2019-05-12T01:01:58.606Z,5.0725
2019-05-12T01:02:08.385Z,5.4261
2019-05-12T01:02:18.312Z,6.1983
2019-05-12T01:02:28.768Z,6.7686
2019-05-12T01:02:38.025Z,5.6922
2019-05-12T01:02:48.642Z,5.8422
2019-05-12T01:02:58.290Z,5.2707
2019-05-12T01:03:08.787Z,4.6427
2019-05-12T01:03:18.830Z,4.0015
2019-05-12T01:03:28.409Z,3.8799
2019-05-12T01:03:38.215Z,4.2542
2019-05-12T01:03:48.465Z,4.3599
2019-05-12T01:03:59.406Z,4.5237
2019-05-12T01:04:08.987Z,5.4955
2019-05-12T01:04:17.678Z,5.0483
2019-05-12T01:04:29.139Z,4.2712
2019-05-12T01:04:38.150Z,4.5267
2019-05-12T01:04:48.814Z,4.5142
2019-05-12T01:04:58.127Z,4.3621
2019-05-12T01:05:08.738Z,5.0022
2019-05-12T01:05:17.782Z,5.4819
2019-05-12T01:05:29.426Z,5.7671
2019-05-12T01:05:38.327Z,4.8341
2019-05-12T01:05:48.675Z,4.1335
2019-05-12T01:05:57.751Z,4.5812
2019-05-12T01:06:08.533Z,5.7143
2019-05-12T01:06:20.402Z,5.0819
2019-05-12T01:06:28.458Z,5.1153
2019-05-12T01:06:39.385Z,5.1710
2019-05-12T01:06:51.911Z,4.8838
2019-05-12T01:07:00.371Z,4.9775
2019-05-12T01:07:08.673Z,4.8754
2019-05-12T01:07:20.302Z,4.3184
2019-05-12T01:07:27.828Z,3.9327
2019-05-12T01:07:38.411Z,4.0690
2019-05-12T01:07:48.189Z,4.2720
2019-05-12T01:07:58.625Z,4.1130
2019-05-12T01:08:08.886Z,5.2126
2019-05-12T01:08:18.812Z,5.5586
2019-05-12T01:08:28.031Z,4.5916
2019-05-12T01:08:38.477Z,4.1715
2019-05-12T01:08:48.346Z,4.1930
2019-05-12T01:08:58.402Z,4.5458
2019-05-12T01:09:08.778Z,4.3767
2019-05-12T01:09:18.387Z,4.6967
2019-05-12T01:09:28.169Z,5.4431
2019-05-12T01:09:38.614Z,5.7305
2019-05-12T01:09:49.130Z,5.9592
2019-05-12T01:10:00.905Z,5.5583
2019-05-12T01:10:08.735Z,5.8589
2019-05-12T01:10:18.384Z,4.7307
2019-05-12T01:10:28.627Z,3.5897
2019-05-12T01:10:39.142Z,3.5476
2019-05-12T01:10:47.880Z,4.0054
2019-05-12T01:10:58.321Z,4.1276
2019-05-12T01:11:08.791Z,4.2635
2019-05-12T01:11:18.404Z,5.3840
2019-05-12T01:11:28.595Z,4.7704
2019-05-12T01:11:39.579Z,4.6917
2019-05-12T01:11:48.636Z,4.6589
2019-05-12T01:11:58.908Z,4.5044
2019-05-12T01:12:09.383Z,5.5326
2019-05-12T01:12:18.410Z,5.8354
2019-05-12T01:12:30.270Z,4.5195
2019-05-12T01:12:38.453Z,4.8716
2019-05-12T01:12:49.427Z,4.9947
2019-05-12T01:12:58.105Z,4.8409
2019-05-12T01:13:10.299Z,5.0554
2019-05-12T01:13:18.671Z,4.6576
2019-05-12T01:13:30.381Z,4.2536
2019-05-12T01:13:38.239Z,4.0774
2019-05-12T01:13:48.624Z,4.0404
2019-05-12T01:13:58.276Z,3.9037
2019-05-12T01:14:08.771Z,4.6545
2019-05-12T01:14:18.678Z,5.1171
2019-05-12T01:14:28.390Z,6.1137
2019-05-12T01:14:38.343Z,5.7101
2019-05-12T01:14:48.388Z,5.5878
2019-05-12T01:14:58.541Z,5.0518
2019-05-12T01:15:10.870Z,4.0881
2019-05-12T01:15:17.782Z,4.0421
2019-05-12T01:15:28.773Z,4.8223
2019-05-12T01:15:37.952Z,6.2316
2019-05-12T01:15:48.389Z,6.1747
2019-05-12T01:15:58.683Z,5.0682
2019-05-12T01:16:08.375Z,4.4180
2019-05-12T01:16:18.422Z,4.0545
2019-05-12T01:16:28.975Z,4.8783
2019-05-12T01:16:38.507Z,5.1317
2019-05-12T01:16:48.679Z,5.0390
2019-05-12T01:16:57.876Z,5.7114
2019-05-12T01:17:08.548Z,5.0534
2019-05-12T01:17:17.827Z,3.9520
2019-05-12T01:17:28.281Z,3.1832
2019-05-12T01:17:40.390Z,3.9157
2019-05-12T01:17:49.290Z,4.7478
2019-05-12T01:17:58.542Z,5.0669
2019-05-12T01:18:11.969Z,5.5026
2019-05-12T01:18:19.398Z,6.1377
2019-05-12T01:18:28.409Z,5.5915
2019-05-12T01:18:39.389Z,5.2870
2019-05-12T01:18:48.002Z,4.9800
2019-05-12T01:18:59.383Z,4.8597
2019-05-12T01:19:07.930Z,5.2128
2019-05-12T01:19:19.408Z,4.9900
2019-05-12T01:19:28.785Z,4.0687
2019-05-12T01:19:40.499Z,4.0097
2019-05-12T01:19:48.610Z,4.0525
2019-05-12T01:19:58.535Z,3.8576
2019-05-12T01:20:08.888Z,3.6857
2019-05-12T01:20:18.405Z,3.8951
2019-05-12T01:20:28.445Z,5.6264
2019-05-12T01:20:39.152Z,5.6420
2019-05-12T01:20:47.943Z,4.9866
2019-05-12T01:20:58.482Z,4.6110
2019-05-12T01:21:07.847Z,4.5423
2019-05-12T01:21:20.936Z,4.3332
2019-05-12T01:21:28.758Z,4.0560
2019-05-12T01:21:38.388Z,4.4025
2019-05-12T01:21:48.122Z,5.3873
2019-05-12T01:21:58.812Z,5.3246
2019-05-12T01:22:08.080Z,5.5538
2019-05-12T01:22:18.742Z,4.7264
2019-05-12T01:22:27.779Z,4.9065
2019-05-12T01:22:38.518Z,5.4612
2019-05-12T01:22:50.388Z,5.0272
2019-05-12T01:22:58.400Z,4.0580
2019-05-12T01:23:08.518Z,5.9376
2019-05-12T01:23:19.973Z,6.1306
2019-05-12T01:23:28.132Z,5.5890
2019-05-12T01:23:53.390Z,4.6756
2019-05-12T01:23:56.437Z,4.2502
2019-05-12T01:24:03.294Z,4.5025
2019-05-12T01:24:12.882Z,5.2011
2019-05-12T01:24:18.878Z,5.4637
2019-05-12T01:24:28.163Z,4.9093
2019-05-12T01:24:38.478Z,4.1458
2019-05-12T01:24:48.468Z,5.1280
2019-05-12T01:24:58.409Z,5.2493
2019-05-12T01:25:08.626Z,4.2882
2019-05-12T01:25:18.421Z,4.4225
2019-05-12T01:25:29.407Z,4.0703
2019-05-12T01:25:39.728Z,4.0375
2019-05-12T01:25:50.829Z,4.0430
2019-05-12T01:25:58.569Z,3.8583
2019-05-12T01:26:09.394Z,3.6988
2019-05-12T01:26:17.943Z,3.8080
2019-05-12T01:26:30.517Z,3.1994
2019-05-12T01:26:38.807Z,3.7810
2019-05-12T01:26:50.303Z,4.1856
2019-05-12T01:26:58.231Z,3.6662
2019-05-12T01:27:12.942Z,4.0227
2019-05-12T01:27:18.089Z,4.2193
2019-05-12T01:27:28.920Z,5.1076
2019-05-12T01:27:38.070Z,5.0315
2019-05-12T01:27:48.415Z,4.0608
2019-05-12T01:27:58.882Z,4.5544
2019-05-12T01:28:08.468Z,4.2138
2019-05-12T01:28:18.372Z,3.3149
2019-05-12T01:28:28.387Z,2.9387
2019-05-12T01:28:38.261Z,2.8438
2019-05-12T01:28:48.912Z,4.8574
2019-05-12T01:28:58.067Z,5.1863
2019-05-12T01:29:08.637Z,5.5017
2019-05-12T01:29:17.758Z,5.2955
2019-05-12T01:29:28.390Z,4.2867
2019-05-12T01:29:38.545Z,3.7858
2019-05-12T01:29:48.395Z,4.7715
2019-05-12T01:29:58.088Z,5.2597
2019-05-12T01:30:08.902Z,5.6887
2019-05-12T01:30:18.063Z,5.7828
2019-05-12T01:30:28.712Z,5.4451
2019-05-12T01:30:39.105Z,5.3040
2019-05-12T01:30:48.054Z,4.2502
2019-05-12T01:30:58.183Z,4.6469
2019-05-12T01:31:08.600Z,3.8207
2019-05-12T01:31:18.811Z,3.2586
2019-05-12T01:31:28.609Z,3.7629
2019-05-12T01:31:38.381Z,4.0503
2019-05-12T01:31:48.611Z,3.5470
2019-05-12T01:31:58.574Z,3.9241
2019-05-12T01:32:09.343Z,5.7256
2019-05-12T01:32:18.279Z,7.8476
2019-05-12T01:32:31.963Z,5.7884
2019-05-12T01:32:39.402Z,6.1061
2019-05-12T01:32:49.269Z,5.6871
2019-05-12T01:32:58.320Z,5.2572
2019-05-12T01:33:08.575Z,5.5800
2019-05-12T01:33:19.391Z,4.6002
2019-05-12T01:33:27.751Z,4.3167
2019-05-12T01:33:39.384Z,3.9403
2019-05-12T01:33:48.596Z,3.8066
2019-05-12T01:33:58.601Z,4.2674
2019-05-12T01:34:08.113Z,4.6685
2019-05-12T01:34:18.425Z,4.6984
2019-05-12T01:34:27.879Z,4.7025
2019-05-12T01:34:38.396Z,4.8624
2019-05-12T01:34:48.646Z,4.3088
2019-05-12T01:34:58.382Z,6.1987
2019-05-12T01:35:08.060Z,5.7858
2019-05-12T01:35:18.570Z,5.8023
2019-05-12T01:35:28.181Z,5.3558
2019-05-12T01:35:38.974Z,4.8431
2019-05-12T01:35:48.253Z,5.2603
2019-05-12T01:35:58.769Z,4.8097
2019-05-12T01:36:07.940Z,3.9694
2019-05-12T01:36:18.395Z,4.5202
2019-05-12T01:36:28.698Z,3.8517
2019-05-12T01:36:38.411Z,3.0134
2019-05-12T01:36:48.446Z,3.6671
2019-05-12T01:36:58.549Z,4.1090
2019-05-12T01:37:09.882Z,4.5820
2019-05-12T01:37:18.531Z,6.1025
2019-05-12T01:37:28.824Z,5.8119
2019-05-12T01:37:38.383Z,5.6012
2019-05-12T01:37:48.427Z,6.5600
2019-05-12T01:38:01.457Z,6.3946
2019-05-12T01:38:07.968Z,5.6582
2019-05-12T01:38:18.428Z,6.5885
2019-05-12T01:38:28.719Z,6.2871
2019-05-12T01:38:38.383Z,5.4523
2019-05-12T01:38:48.395Z,5.1146
2019-05-12T01:39:01.579Z,3.8308
2019-05-12T01:39:09.387Z,3.1209
2019-05-12T01:39:19.304Z,3.7071
2019-05-12T01:39:28.964Z,4.9159
2019-05-12T01:39:38.415Z,4.9978
2019-05-12T01:39:49.232Z,5.6033
2019-05-12T01:39:59.893Z,5.7712
2019-05-12T01:40:10.642Z,5.5860
2019-05-12T01:40:19.085Z,5.3751
2019-05-12T01:40:30.462Z,4.5308
2019-05-12T01:40:39.435Z,4.5882
2019-05-12T01:40:48.384Z,4.5723
2019-05-12T01:40:58.411Z,4.0856
2019-05-12T01:41:08.820Z,4.5453
2019-05-12T01:41:17.993Z,4.0950
2019-05-12T01:41:28.759Z,3.8820
2019-05-12T01:41:38.910Z,4.5190
2019-05-12T01:41:48.401Z,4.9581
2019-05-12T01:41:58.715Z,5.0223
2019-05-12T01:42:09.128Z,5.3752
2019-05-12T01:42:18.033Z,4.6772
2019-05-12T01:42:28.800Z,3.5281
2019-05-12T01:42:38.254Z,4.4065
2019-05-12T01:42:48.481Z,4.9720
2019-05-12T01:42:58.146Z,5.0204
2019-05-12T01:43:08.543Z,5.2120
2019-05-12T01:43:18.699Z,5.3375
2019-05-12T01:43:28.398Z,4.5794
2019-05-12T01:43:38.224Z,3.7229
2019-05-12T01:43:48.807Z,3.6578
2019-05-12T01:43:58.464Z,4.7356
2019-05-12T01:44:08.789Z,4.6257
2019-05-12T01:44:18.365Z,3.7945
2019-05-12T01:44:28.747Z,4.1130
2019-05-12T01:44:38.318Z,4.6790
2019-05-12T01:44:49.678Z,4.5819
2019-05-12T01:44:59.928Z,4.1519
2019-05-12T01:45:09.241Z,3.6430
2019-05-12T01:45:20.308Z,3.3899
2019-05-12T01:45:29.023Z,3.4842
2019-05-12T01:45:39.410Z,4.1267
2019-05-12T01:45:48.298Z,3.8693
2019-05-12T01:46:00.516Z,4.1416
2019-05-12T01:46:08.025Z,3.6545
2019-05-12T01:46:18.400Z,3.2468
2019-05-12T01:46:31.942Z,4.7294
2019-05-12T01:46:38.529Z,5.6130
2019-05-12T01:46:48.418Z,5.5952
2019-05-12T01:46:58.379Z,5.3929
2019-05-12T01:47:10.942Z,5.1021
2019-05-12T01:47:18.841Z,5.0048
2019-05-12T01:47:29.107Z,4.1150
2019-05-12T01:47:42.949Z,4.8460
2019-05-12T01:47:48.559Z,4.6365
2019-05-12T01:47:59.423Z,5.0639
2019-05-12T01:48:08.863Z,4.3486
2019-05-12T01:48:18.579Z,3.4806
2019-05-12T01:48:28.700Z,3.2960
2019-05-12T01:48:38.391Z,4.3937
2019-05-12T01:48:48.434Z,4.9787
2019-05-12T01:48:59.098Z,5.0951
2019-05-12T01:49:08.217Z,4.5120
2019-05-12T01:49:18.800Z,6.0570
2019-05-12T01:49:28.979Z,5.9285
2019-05-12T01:49:38.405Z,5.0946
2019-05-12T01:49:48.816Z,5.1670
2019-05-12T01:49:58.428Z,5.3368
2019-05-12T01:50:09.167Z,5.6291
2019-05-12T01:50:17.881Z,5.3573
2019-05-12T01:50:28.640Z,5.5422
2019-05-12T01:50:38.970Z,4.5282
2019-05-12T01:50:47.638Z,3.9603
2019-05-12T01:50:59.439Z,3.6187
2019-05-12T01:51:08.388Z,3.5036
2019-05-12T01:51:18.390Z,4.8162
2019-05-12T01:51:29.380Z,5.3684
2019-05-12T01:51:39.532Z,5.3174
2019-05-12T01:51:48.387Z,4.6171
2019-05-12T01:51:58.378Z,4.1728
2019-05-12T01:52:09.370Z,4.9180
2019-05-12T01:52:17.869Z,4.6698
2019-05-12T01:52:29.406Z,4.4548
2019-05-12T01:52:38.587Z,4.8245
2019-05-12T01:52:48.416Z,4.6829
2019-05-12T01:52:59.151Z,5.3057
2019-05-12T01:53:08.701Z,5.1136
2019-05-12T01:53:18.117Z,5.5516
2019-05-12T01:53:28.768Z,5.0793
2019-05-12T01:53:37.941Z,4.7678
2019-05-12T01:53:48.406Z,4.7795
2019-05-12T01:54:10.962Z,3.7682
2019-05-12T01:54:13.761Z,3.9119
2019-05-12T01:54:18.876Z,4.3056
2019-05-12T01:54:28.394Z,3.9526
2019-05-12T01:54:39.900Z,4.6546
2019-05-12T01:54:48.514Z,5.4471
2019-05-12T01:54:59.011Z,5.2307
2019-05-12T01:55:08.506Z,4.6694
2019-05-12T01:55:18.575Z,4.2982
2019-05-12T01:55:28.469Z,4.8722
2019-05-12T01:55:42.182Z,3.6501
2019-05-12T01:55:48.627Z,3.4910
2019-05-12T01:55:58.516Z,4.0824
2019-05-12T01:56:08.398Z,5.1495
2019-05-12T01:56:18.194Z,5.7258
2019-05-12T01:56:28.796Z,4.9853
2019-05-12T01:56:38.284Z,4.0062
2019-05-12T01:56:48.469Z,4.1663
2019-05-12T01:56:58.659Z,4.3976
2019-05-12T01:57:08.397Z,4.0959
2019-05-12T01:57:18.864Z,5.0598
2019-05-12T01:57:28.883Z,5.5156
2019-05-12T01:57:38.681Z,4.8966
2019-05-12T01:57:48.657Z,3.7673
2019-05-12T01:57:57.951Z,3.6866
2019-05-12T01:58:08.733Z,3.5154
2019-05-12T01:58:19.700Z,3.8868
2019-05-12T01:58:28.412Z,3.9989
2019-05-12T01:58:38.158Z,4.3862
2019-05-12T01:58:48.507Z,4.0586
2019-05-12T01:58:59.392Z,3.6053
2019-05-12T01:59:08.141Z,4.3581
2019-05-12T01:59:19.387Z,4.6799
2019-05-12T01:59:28.743Z,4.1406
2019-05-12T01:59:38.373Z,4.3143
2019-05-12T01:59:48.415Z,4.1813
2019-05-12T01:59:58.687Z,4.1899
2019-05-12T02:00:08.075Z,3.9146
2019-05-12T02:00:18.404Z,4.9403
2019-05-12T02:00:28.924Z,5.1548
2019-05-12T02:00:39.137Z,4.9206
2019-05-12T02:00:48.291Z,4.8552
2019-05-12T02:00:58.963Z,4.0056
2019-05-12T02:01:08.218Z,3.4378
2019-05-12T02:01:18.554Z,2.9887
2019-05-12T02:01:28.110Z,3.1375
2019-05-12T02:01:38.899Z,4.1653
2019-05-12T02:01:48.825Z,4.7013
2019-05-12T02:01:58.436Z,4.2193
2019-05-12T02:02:08.613Z,4.5268
2019-05-12T02:02:18.398Z,4.4698
2019-05-12T02:02:28.553Z,4.1083
2019-05-12T02:02:38.675Z,3.7766
2019-05-12T02:02:48.047Z,3.4899
2019-05-12T02:02:58.543Z,4.1424
2019-05-12T02:03:08.966Z,4.0717
2019-05-12T02:03:18.395Z,5.2375
2019-05-12T02:03:28.372Z,5.1158
2019-05-12T02:03:38.396Z,3.5442
2019-05-12T02:03:48.374Z,2.8090
2019-05-12T02:03:58.621Z,2.7312
2019-05-12T02:04:07.839Z,2.5535
2019-05-12T02:04:19.289Z,2.6213
2019-05-12T02:04:28.477Z,2.7263
2019-05-12T02:04:38.380Z,3.3312
2019-05-12T02:04:48.373Z,3.5409